Time;durP1;ratioP1;P1;durP2;ratioP2;P2;SDS_P1;SDS_P2;PMS_P1;PMS_P2;Temp;Humidity;BMP_temperature;BMP_pressure;BME280_temperature;BME280_humidity;BME280_pressure;Samples;Min_cycle;Max_cycle;Signal;HPM_P1;HPM_P2
2021/07/01 00:01:50;;;;;;;57.90;19.55;;;13.90;99.90;;;;;;5083851;28;20035;-75
2021/07/01 00:04:17;;;;;;;35.42;16.98;;;13.90;99.90;;;;;;5083433;28;20036;-74
2021/07/01 00:06:43;;;;;;;36.75;17.67;;;13.90;99.90;;;;;;5082678;28;20631;-75
2021/07/01 00:09:17;;;;;;;59.85;20.77;;;13.90;99.90;;;;;;5083405;28;20102;-74
2021/07/01 00:11:45;;;;;;;31.48;16.48;;;13.90;99.90;;;;;;5083256;28;20557;-75
2021/07/01 00:14:12;;;;;;;69.90;22.08;;;13.80;99.90;;;;;;5065900;28;20067;-75
2021/07/01 00:16:38;;;;;;;38.70;18.27;;;13.80;99.90;;;;;;5082710;28;20487;-76
2021/07/01 00:19:06;;;;;;;38.70;17.75;;;13.90;99.90;;;;;;5089341;28;20047;-75
2021/07/01 00:21:32;;;;;;;44.80;19.42;;;13.80;99.90;;;;;;5050252;28;20040;-75
2021/07/01 00:23:58;;;;;;;77.70;20.92;;;13.80;99.90;;;;;;5078707;28;20123;-76
2021/07/01 00:26:30;;;;;;;30.38;16.48;;;13.80;99.90;;;;;;5086226;28;20109;-76
2021/07/01 00:28:56;;;;;;;37.90;19.38;;;13.80;99.90;;;;;;5086560;28;20039;-76
2021/07/01 00:31:23;;;;;;;37.22;18.80;;;13.80;99.90;;;;;;5084914;28;20490;-76
2021/07/01 00:33:49;;;;;;;49.15;17.92;;;13.80;99.90;;;;;;5083565;28;20082;-75
2021/07/01 00:36:15;;;;;;;36.65;17.92;;;13.80;99.90;;;;;;5050769;28;20515;-76
2021/07/01 00:38:41;;;;;;;49.33;19.92;;;13.80;99.90;;;;;;5085675;28;20032;-75
2021/07/01 00:41:07;;;;;;;37.65;17.02;;;13.80;99.90;;;;;;5085715;28;20059;-76
2021/07/01 00:43:33;;;;;;;58.00;19.77;;;13.80;99.90;;;;;;5080918;28;20488;-74
2021/07/01 00:46:00;;;;;;;41.33;18.95;;;13.80;99.90;;;;;;5063402;28;20054;-75
2021/07/01 00:48:25;;;;;;;34.58;15.23;;;13.70;99.90;;;;;;5054449;28;20130;-75
2021/07/01 00:50:53;;;;;;;45.50;18.70;;;13.70;99.90;;;;;;5076362;28;20098;-75
2021/07/01 00:53:20;;;;;;;55.08;21.15;;;13.70;99.90;;;;;;5072593;28;20044;-76
2021/07/01 00:55:46;;;;;;;49.42;20.30;;;13.80;99.90;;;;;;5080701;28;20040;-76
2021/07/01 00:58:12;;;;;;;33.17;17.52;;;13.80;99.90;;;;;;5058268;28;20113;-75
2021/07/01 01:01:11;;;;;;;54.35;20.13;;;13.80;99.90;;;;;;5083461;28;20044;-76
2021/07/01 01:03:32;;;;;;;38.35;18.38;;;13.70;99.90;;;;;;5066444;28;20044;-76
2021/07/01 01:05:58;;;;;;;48.72;18.33;;;13.70;99.90;;;;;;5066489;28;20044;-76
2021/07/01 01:08:25;;;;;;;38.90;18.15;;;13.70;99.90;;;;;;5077294;28;20545;-75
2021/07/01 01:10:52;;;;;;;51.72;18.98;;;13.70;99.90;;;;;;5082179;28;20054;-75
2021/07/01 01:13:26;;;;;;;36.05;17.67;;;13.80;99.90;;;;;;5082523;28;20560;-76
2021/07/01 01:15:57;;;;;;;38.92;18.42;;;13.80;99.90;;;;;;5064358;28;20051;-75
2021/07/01 01:18:24;;;;;;;47.85;18.70;;;13.70;99.90;;;;;;5078335;28;20120;-75
2021/07/01 01:20:52;;;;;;;51.67;20.48;;;13.80;99.90;;;;;;5080184;28;20111;-75
2021/07/01 01:23:18;;;;;;;43.92;19.05;;;13.70;99.90;;;;;;5064143;28;20032;-75
2021/07/01 01:25:48;;;;;;;42.05;19.15;;;13.80;99.90;;;;;;5079470;28;20121;-74
2021/07/01 01:28:15;;;;;;;41.33;18.13;;;13.70;99.90;;;;;;5080696;28;20028;-76
2021/07/01 01:30:41;;;;;;;55.22;20.33;;;13.80;99.90;;;;;;5064400;28;20043;-75
2021/07/01 01:33:08;;;;;;;36.00;15.95;;;13.80;99.90;;;;;;5082035;28;20157;-76
2021/07/01 01:35:38;;;;;;;45.60;17.98;;;13.80;99.90;;;;;;5063698;28;20060;-76
2021/07/01 01:38:08;;;;;;;56.05;21.60;;;13.80;99.90;;;;;;5081690;28;20044;-75
2021/07/01 01:40:38;;;;;;;43.42;18.52;;;13.80;99.90;;;;;;5079601;28;20045;-74
2021/07/01 01:43:04;;;;;;;36.75;18.90;;;13.70;99.90;;;;;;5064103;28;20043;-75
2021/07/01 01:45:31;;;;;;;48.42;18.95;;;13.80;99.90;;;;;;5064427;28;20040;-75
2021/07/01 01:47:59;;;;;;;63.03;21.80;;;13.70;99.90;;;;;;5075951;28;20147;-75
2021/07/01 01:50:25;;;;;;;46.08;19.55;;;13.80;99.90;;;;;;5082128;28;20040;-75
2021/07/01 01:52:52;;;;;;;65.40;19.65;;;13.80;99.90;;;;;;5061432;28;20041;-75
2021/07/01 01:55:17;;;;;;;43.92;19.92;;;13.80;99.90;;;;;;5059671;28;20131;-76
2021/07/01 01:57:46;;;;;;;48.35;19.85;;;13.80;99.90;;;;;;5081215;28;20085;-76
2021/07/01 02:00:13;;;;;;;43.00;18.90;;;13.80;99.90;;;;;;5080040;28;20546;-75
2021/07/01 02:02:43;;;;;;;59.20;20.63;;;13.80;99.90;;;;;;5083687;28;20121;-76
2021/07/01 02:05:10;;;;;;;42.60;18.50;;;13.80;99.90;;;;;;5080726;28;20094;-75
2021/07/01 02:07:36;;;;;;;34.45;17.38;;;13.80;99.90;;;;;;5068487;28;20153;-75
2021/07/01 02:10:09;;;;;;;34.35;17.10;;;13.80;99.90;;;;;;5081066;28;20066;-76
2021/07/01 02:12:36;;;;;;;40.25;17.17;;;13.80;99.90;;;;;;5086370;28;20094;-75
2021/07/01 02:15:10;;;;;;;50.85;20.17;;;13.80;99.90;;;;;;5088348;28;20047;-75
2021/07/01 02:17:37;;;;;;;36.45;18.15;;;13.80;99.90;;;;;;5101264;28;20044;-74
2021/07/01 02:20:07;;;;;;;41.58;18.80;;;13.80;99.90;;;;;;5087006;28;20040;-75
2021/07/01 02:22:33;;;;;;;59.35;21.25;;;13.80;99.90;;;;;;5084923;28;20056;-74
2021/07/01 02:25:00;;;;;;;41.53;18.42;;;13.80;99.90;;;;;;5086922;28;20125;-75
2021/07/01 02:27:30;;;;;;;44.42;19.27;;;13.80;99.90;;;;;;5069424;28;20035;-74
2021/07/01 02:29:56;;;;;;;33.63;16.75;;;13.80;99.90;;;;;;5084690;28;20047;-74
2021/07/01 02:32:22;;;;;;;41.05;18.83;;;13.80;99.90;;;;;;5083037;28;20037;-80
2021/07/01 02:34:48;;;;;;;32.05;17.67;;;13.80;99.90;;;;;;5044424;28;20602;-80
2021/07/01 02:37:14;;;;;;;40.08;19.35;;;13.80;99.90;;;;;;5051961;28;20496;-81
2021/07/01 02:39:40;;;;;;;29.88;16.80;;;13.80;99.90;;;;;;5084050;28;20127;-82
2021/07/01 02:42:06;;;;;;;30.63;16.80;;;13.80;99.90;;;;;;5084619;28;20040;-82
2021/07/01 02:44:33;;;;;;;44.22;18.55;;;13.80;99.90;;;;;;5084863;28;20402;-75
2021/07/01 02:46:59;;;;;;;42.60;18.42;;;13.80;99.90;;;;;;5080842;28;20383;-76
2021/07/01 02:49:25;;;;;;;42.60;18.20;;;13.80;99.90;;;;;;5083488;28;20036;-75
2021/07/01 02:51:54;;;;;;;45.03;19.45;;;13.80;99.90;;;;;;5080908;28;20643;-76
2021/07/01 02:54:21;;;;;;;45.58;19.25;;;13.80;99.90;;;;;;5077397;28;20043;-76
2021/07/01 02:56:48;;;;;;;30.10;16.40;;;13.80;99.90;;;;;;5067441;28;20036;-75
2021/07/01 02:59:15;;;;;;;74.47;20.83;;;13.80;99.90;;;;;;5083512;28;20128;-76
2021/07/01 03:01:43;;;;;;;46.08;19.38;;;13.80;99.90;;;;;;5065400;28;20050;-75
2021/07/01 03:04:09;;;;;;;46.00;20.42;;;13.80;99.90;;;;;;5049677;28;20052;-75
2021/07/01 03:06:36;;;;;;;58.08;19.95;;;13.80;99.90;;;;;;5063759;28;20507;-75
2021/07/01 03:09:04;;;;;;;64.15;20.65;;;13.80;99.90;;;;;;5081613;28;20063;-75
2021/07/01 03:11:36;;;;;;;41.03;18.77;;;13.90;99.90;;;;;;5081257;28;20063;-75
2021/07/01 03:14:03;;;;;;;65.75;21.27;;;13.90;99.90;;;;;;5083635;28;20152;-76
2021/07/01 03:16:43;;;;;;;62.60;18.83;;;13.90;99.90;;;;;;5064193;28;20067;-75
2021/07/01 03:19:09;;;;;;;56.72;19.58;;;13.90;99.90;;;;;;5083592;28;20052;-75
2021/07/01 03:21:34;;;;;;;55.92;20.00;;;13.90;99.90;;;;;;5082699;28;20046;-75
2021/07/01 03:24:01;;;;;;;35.78;18.75;;;13.90;99.90;;;;;;5082645;28;20170;-75
2021/07/01 03:26:30;;;;;;;54.88;18.85;;;13.90;99.90;;;;;;5063696;28;20118;-75
2021/07/01 03:28:56;;;;;;;90.30;22.83;;;13.90;99.90;;;;;;5083443;28;20124;-76
2021/07/01 03:31:31;;;;;;;39.15;18.13;;;13.90;99.90;;;;;;5086989;28;20063;-75
2021/07/01 03:33:57;;;;;;;49.45;19.73;;;13.90;99.90;;;;;;5081624;28;20059;-74
2021/07/01 03:36:26;;;;;;;54.47;20.17;;;13.90;99.90;;;;;;5063769;28;20032;-75
2021/07/01 03:38:52;;;;;;;39.33;18.52;;;13.90;99.90;;;;;;5080731;28;20051;-74
2021/07/01 03:41:18;;;;;;;55.80;19.50;;;13.90;99.90;;;;;;5080557;28;20032;-75
2021/07/01 03:43:47;;;;;;;46.00;19.75;;;13.90;99.90;;;;;;5078664;28;20028;-75
2021/07/01 03:46:14;;;;;;;39.72;19.13;;;13.90;99.90;;;;;;5066897;28;20499;-74
2021/07/01 03:48:40;;;;;;;38.17;18.25;;;13.90;99.90;;;;;;5084555;28;20110;-75
2021/07/01 03:51:06;;;;;;;53.45;19.35;;;13.90;99.90;;;;;;5067871;28;20152;-75
2021/07/01 03:53:32;;;;;;;82.35;22.25;;;13.90;99.90;;;;;;5065633;28;20068;-74
2021/07/01 03:55:59;;;;;;;74.47;21.85;;;14.00;99.90;;;;;;5084107;28;20051;-75
2021/07/01 03:58:25;;;;;;;100.20;23.45;;;13.90;99.90;;;;;;5084424;28;20060;-75
2021/07/01 04:00:51;;;;;;;58.75;20.38;;;13.90;99.90;;;;;;5082752;28;20122;-76
2021/07/01 04:03:17;;;;;;;99.80;21.83;;;13.90;99.90;;;;;;5080092;28;20040;-76
2021/07/01 04:05:43;;;;;;;40.70;18.33;;;14.00;99.90;;;;;;5085959;28;20032;-75
2021/07/01 04:08:09;;;;;;;41.58;19.92;;;14.00;99.90;;;;;;5066293;28;20048;-75
2021/07/01 04:10:35;;;;;;;54.25;21.05;;;14.00;99.90;;;;;;5085042;28;20055;-74
2021/07/01 04:13:01;;;;;;;67.05;22.15;;;14.00;99.90;;;;;;5067728;28;20169;-74
2021/07/01 04:15:30;;;;;;;37.97;19.55;;;14.00;99.90;;;;;;5048413;28;20091;-74
2021/07/01 04:18:06;;;;;;;76.05;22.02;;;14.00;99.90;;;;;;5081425;28;20144;-75
2021/07/01 04:20:35;;;;;;;46.15;18.95;;;14.00;99.90;;;;;;5083381;28;20047;-75
2021/07/01 04:23:01;;;;;;;82.28;22.42;;;14.00;99.90;;;;;;5079660;28;20486;-75
2021/07/01 04:25:28;;;;;;;31.45;16.40;;;14.00;99.90;;;;;;5085303;28;20119;-74
2021/07/01 04:27:54;;;;;;;53.33;19.83;;;14.00;99.90;;;;;;5064257;28;20048;-74
2021/07/01 04:30:20;;;;;;;65.15;19.80;;;14.10;99.90;;;;;;5065912;28;20040;-74
2021/07/01 04:32:46;;;;;;;36.47;18.13;;;14.10;99.90;;;;;;5083360;28;20469;-75
2021/07/01 04:35:12;;;;;;;40.58;19.20;;;14.10;99.90;;;;;;5063800;28;20064;-75
2021/07/01 04:37:37;;;;;;;48.08;19.50;;;14.10;99.90;;;;;;5082939;28;20128;-75
2021/07/01 04:40:08;;;;;;;41.47;19.67;;;14.10;99.90;;;;;;5082025;28;20039;-75
2021/07/01 04:42:35;;;;;;;36.50;16.48;;;14.10;99.90;;;;;;5080994;28;20043;-74
2021/07/01 04:45:02;;;;;;;133.38;24.80;;;14.10;99.90;;;;;;5081567;28;20058;-74
2021/07/01 04:47:28;;;;;;;83.72;22.55;;;14.10;99.90;;;;;;5081579;28;20063;-74
2021/07/01 04:49:54;;;;;;;38.53;17.80;;;14.10;99.90;;;;;;5080945;28;20154;-74
2021/07/01 04:52:20;;;;;;;86.13;24.27;;;14.10;99.90;;;;;;5077423;28;20085;-74
2021/07/01 04:54:46;;;;;;;45.83;19.45;;;14.10;99.90;;;;;;5084173;28;20511;-74
2021/07/01 04:57:12;;;;;;;75.20;20.48;;;14.10;99.90;;;;;;5061991;28;20052;-74
2021/07/01 04:59:38;;;;;;;41.15;18.20;;;14.10;99.90;;;;;;5082617;28;20067;-75
2021/07/01 05:02:06;;;;;;;69.15;23.27;;;14.20;99.90;;;;;;5081290;28;20041;-75
2021/07/01 05:04:32;;;;;;;49.67;20.73;;;14.20;99.90;;;;;;5043860;28;20044;-74
2021/07/01 05:07:01;;;;;;;77.40;22.52;;;14.20;99.90;;;;;;5083298;28;20047;-75
2021/07/01 05:09:30;;;;;;;41.88;20.00;;;14.20;99.90;;;;;;5064283;28;20704;-75
2021/07/01 05:11:56;;;;;;;106.72;24.13;;;14.20;99.90;;;;;;5077166;28;20036;-75
2021/07/01 05:14:22;;;;;;;82.65;23.33;;;14.30;99.90;;;;;;5062185;28;20044;-74
2021/07/01 05:16:48;;;;;;;84.13;24.30;;;14.30;99.90;;;;;;5079848;28;20130;-75
2021/07/01 05:19:14;;;;;;;76.30;24.05;;;14.30;99.90;;;;;;5079684;28;20494;-75
2021/07/01 05:21:40;;;;;;;73.72;23.10;;;14.30;99.90;;;;;;5081565;28;20058;-75
2021/07/01 05:24:06;;;;;;;41.15;20.45;;;14.40;99.90;;;;;;5061020;28;20043;-75
2021/07/01 05:26:33;;;;;;;60.42;22.45;;;14.40;99.90;;;;;;5080087;28;20112;-75
2021/07/01 05:28:59;;;;;;;66.07;23.27;;;14.40;99.90;;;;;;5081716;28;20036;-75
2021/07/01 05:31:25;;;;;;;59.45;22.42;;;14.40;99.90;;;;;;5078792;28;20043;-75
2021/07/01 05:33:54;;;;;;;59.08;21.90;;;14.40;99.90;;;;;;5082383;28;20056;-74
2021/07/01 05:36:37;;;;;;;58.40;22.67;;;14.40;99.90;;;;;;5083962;28;20232;-81
2021/07/01 05:39:05;;;;;;;65.50;22.55;;;14.40;99.90;;;;;;5082237;28;20044;-81
2021/07/01 05:41:30;;;;;;;65.95;22.60;;;14.40;99.90;;;;;;5071927;28;20036;-81
2021/07/01 05:43:59;;;;;;;102.68;26.13;;;14.40;99.90;;;;;;5083155;28;20034;-81
2021/07/01 05:46:25;;;;;;;59.65;23.02;;;14.40;99.90;;;;;;5067248;28;20498;-80
2021/07/01 05:48:51;;;;;;;66.03;24.00;;;14.40;99.90;;;;;;5065072;28;20067;-75
2021/07/01 05:51:18;;;;;;;50.40;22.15;;;14.40;99.90;;;;;;5089156;28;20036;-73
2021/07/01 05:56:13;;;;;;;49.30;20.10;;;14.40;99.90;;;;;;5085837;28;20032;-74
2021/07/01 05:58:38;;;;;;;67.13;24.40;;;14.40;99.90;;;;;;5090415;28;20108;-74
2021/07/01 06:01:07;;;;;;;71.07;24.75;;;14.40;99.90;;;;;;5081517;28;20489;-74
2021/07/01 06:03:33;;;;;;;80.28;25.85;;;14.50;99.90;;;;;;5103509;28;20058;-76
2021/07/01 06:06:08;;;;;;;54.63;24.27;;;14.40;99.90;;;;;;5087390;28;20625;-75
2021/07/01 06:08:35;;;;;;;83.38;27.40;;;14.50;99.90;;;;;;5082343;28;20067;-75
2021/07/01 06:11:06;;;;;;;94.63;27.85;;;14.50;99.90;;;;;;5066580;28;20044;-75
2021/07/01 06:13:47;;;;;;;107.35;27.27;;;14.50;99.90;;;;;;5084374;28;20115;-73
2021/07/01 06:16:15;;;;;;;79.05;24.85;;;14.50;99.90;;;;;;5081370;28;20052;-75
2021/07/01 06:18:42;;;;;;;66.47;26.08;;;14.50;99.90;;;;;;5084168;28;20526;-75
2021/07/01 06:21:08;;;;;;;54.30;24.17;;;14.50;99.90;;;;;;5065049;28;20036;-74
2021/07/01 06:23:39;;;;;;;106.97;28.38;;;14.50;99.90;;;;;;5097146;28;20047;-74
2021/07/01 06:26:05;;;;;;;61.00;25.55;;;14.50;99.90;;;;;;5082085;28;20476;-74
2021/07/01 06:28:40;;;;;;;47.50;22.75;;;14.50;99.90;;;;;;5081334;28;20100;-75
2021/07/01 06:31:10;;;;;;;66.70;26.65;;;14.60;99.90;;;;;;5081087;28;20036;-74
2021/07/01 06:33:42;;;;;;;72.97;26.40;;;14.60;99.90;;;;;;5079432;28;20037;-75
2021/07/01 06:36:09;;;;;;;81.68;27.02;;;14.60;99.90;;;;;;5079998;28;20063;-75
2021/07/01 06:38:45;;;;;;;57.40;25.58;;;14.50;99.90;;;;;;5082008;28;20087;-75
2021/07/01 06:41:13;;;;;;;68.55;27.45;;;14.60;99.90;;;;;;5079495;28;20046;-75
2021/07/01 06:43:41;;;;;;;53.63;25.90;;;14.60;99.90;;;;;;5079876;28;20044;-74
2021/07/01 06:46:08;;;;;;;78.43;28.55;;;14.60;99.90;;;;;;5079704;28;20418;-74
2021/07/01 06:48:37;;;;;;;62.58;26.40;;;14.60;99.90;;;;;;5086435;28;20044;-75
2021/07/01 06:51:03;;;;;;;85.20;28.38;;;14.60;99.90;;;;;;5082570;28;20043;-74
2021/07/01 06:53:30;;;;;;;63.55;26.08;;;14.60;99.90;;;;;;5079894;28;20430;-75
2021/07/01 06:55:56;;;;;;;56.17;25.83;;;14.70;99.90;;;;;;5085303;28;20032;-74
2021/07/01 06:58:22;;;;;;;62.58;27.92;;;14.70;99.90;;;;;;5067271;28;20895;-75
2021/07/01 07:00:49;;;;;;;58.33;27.55;;;14.70;99.90;;;;;;5078256;28;20040;-75
2021/07/01 07:03:19;;;;;;;58.40;26.33;;;14.80;99.90;;;;;;5082471;28;20537;-75
2021/07/01 07:05:49;;;;;;;76.68;27.73;;;14.80;99.90;;;;;;5084501;28;20048;-75
2021/07/01 07:08:16;;;;;;;;;;;14.80;99.90;;;;;;5083478;28;20092;-76
2021/07/01 07:10:44;;;;;;;55.88;26.38;;;14.90;99.90;;;;;;5081977;28;19924;-76
2021/07/01 07:13:11;;;;;;;49.13;27.52;;;14.90;99.90;;;;;;5097697;28;20089;-75
2021/07/01 07:15:42;;;;;;;63.83;27.70;;;14.90;99.90;;;;;;5081356;28;20043;-76
2021/07/01 07:18:19;;;;;;;61.58;28.83;;;15.00;99.90;;;;;;5097196;28;20051;-76
2021/07/01 07:20:51;;;;;;;69.18;28.30;;;15.00;99.90;;;;;;5082551;28;20495;-76
2021/07/01 07:23:19;;;;;;;49.75;26.05;;;15.00;99.90;;;;;;5083405;28;20037;-75
2021/07/01 07:25:46;;;;;;;71.00;29.38;;;15.00;99.90;;;;;;5066239;28;20036;-75
2021/07/01 07:28:17;;;;;;;47.10;24.83;;;15.00;99.90;;;;;;5067841;28;20044;-75
2021/07/01 07:30:44;;;;;;;51.05;25.92;;;15.10;99.90;;;;;;5062396;28;20038;-75
2021/07/01 07:33:11;;;;;;;58.13;27.52;;;15.10;99.90;;;;;;5085253;28;20044;-76
2021/07/01 07:35:38;;;;;;;52.05;25.20;;;15.10;99.90;;;;;;5064151;28;20576;-75
2021/07/01 07:38:05;;;;;;;52.22;26.35;;;15.20;99.90;;;;;;5079528;28;20131;-76
2021/07/01 07:40:32;;;;;;;48.92;25.67;;;15.20;99.90;;;;;;5085701;28;20032;-75
2021/07/01 07:43:02;;;;;;;67.00;30.45;;;15.30;99.90;;;;;;5080217;28;20373;-75
2021/07/01 07:45:29;;;;;;;64.97;29.48;;;15.30;99.90;;;;;;5070607;28;20060;-75
2021/07/01 07:47:55;;;;;;;50.70;26.23;;;15.30;99.90;;;;;;5079525;28;20047;-75
2021/07/01 07:50:21;;;;;;;66.03;29.52;;;15.40;99.90;;;;;;5086464;28;20467;-75
2021/07/01 07:52:55;;;;;;;72.47;29.85;;;15.40;99.90;;;;;;5082027;28;20398;-75
2021/07/01 07:55:22;;;;;;;62.20;28.92;;;15.40;99.90;;;;;;5084457;28;20117;-75
2021/07/01 07:57:52;;;;;;;60.10;28.30;;;15.50;99.90;;;;;;5084128;28;20036;-75
2021/07/01 08:00:21;;;;;;;55.57;29.00;;;15.50;99.90;;;;;;5083456;28;20897;-75
2021/07/01 08:02:55;;;;;;;58.13;27.63;;;15.60;99.90;;;;;;5083271;28;20347;-75
2021/07/01 08:05:30;;;;;;;50.85;27.65;;;15.70;99.90;;;;;;5082834;28;20035;-75
2021/07/01 08:07:58;;;;;;;45.78;25.90;;;15.70;99.90;;;;;;5080034;28;20048;-76
2021/07/01 08:10:32;;;;;;;53.30;28.40;;;15.70;99.90;;;;;;5076787;28;20051;-75
2021/07/01 08:13:07;;;;;;;74.03;31.15;;;15.70;99.90;;;;;;5082141;28;20043;-75
2021/07/01 08:15:36;;;;;;;47.08;26.92;;;15.70;99.90;;;;;;5082115;28;20040;-76
2021/07/01 08:18:03;;;;;;;52.70;29.10;;;15.80;99.90;;;;;;5080646;28;20095;-76
2021/07/01 08:20:29;;;;;;;71.53;30.63;;;15.70;99.90;;;;;;5081875;28;20112;-75
2021/07/01 08:22:56;;;;;;;51.15;27.63;;;15.80;99.90;;;;;;5082940;28;20044;-76
2021/07/01 08:25:24;;;;;;;67.72;28.83;;;15.80;99.90;;;;;;5065386;28;20040;-76
2021/07/01 08:27:51;;;;;;;63.78;30.60;;;15.90;99.90;;;;;;5078976;28;20032;-75
2021/07/01 08:30:25;;;;;;;55.05;28.90;;;15.90;99.90;;;;;;5081348;28;20039;-76
2021/07/01 08:33:00;;;;;;;65.68;29.80;;;15.90;99.90;;;;;;5082914;28;21781;-76
2021/07/01 08:35:28;;;;;;;50.50;28.25;;;16.00;99.90;;;;;;5080816;28;20036;-76
2021/07/01 08:38:01;;;;;;;46.40;26.48;;;16.10;99.90;;;;;;5082877;28;20035;-76
2021/07/01 08:40:34;;;;;;;46.63;27.75;;;16.10;99.90;;;;;;5084021;28;20089;-75
2021/07/01 08:43:02;;;;;;;67.15;29.80;;;16.20;99.90;;;;;;5080066;28;20127;-76
2021/07/01 08:45:50;;;;;;;61.70;29.42;;;16.30;99.90;;;;;;5081470;28;20067;-76
2021/07/01 08:48:34;;;;;;;47.33;27.48;;;16.40;99.90;;;;;;5077868;28;20028;-76
2021/07/01 08:51:02;;;;;;;54.17;27.02;;;16.50;99.90;;;;;;5081856;28;20036;-77
2021/07/01 08:53:47;;;;;;;49.75;28.60;;;16.50;99.90;;;;;;5080789;28;20498;-77
2021/07/01 08:56:16;;;;;;;55.58;28.17;;;16.50;99.90;;;;;;5078881;28;20048;-76
2021/07/01 08:58:48;;;;;;;46.10;26.85;;;16.50;99.90;;;;;;5098994;28;20126;-76
2021/07/01 09:01:19;;;;;;;50.33;28.00;;;16.60;99.90;;;;;;5078873;28;20089;-75
2021/07/01 09:03:47;;;;;;;53.15;26.70;;;16.60;99.90;;;;;;5084059;28;20430;-84
2021/07/01 09:06:25;;;;;;;69.57;29.00;;;16.60;99.90;;;;;;5081805;28;20571;-76
2021/07/01 09:08:52;;;;;;;49.20;28.30;;;16.60;99.90;;;;;;5079209;28;20091;-76
2021/07/01 09:11:22;;;;;;;43.45;26.50;;;16.60;99.90;;;;;;5084411;28;20407;-76
2021/07/01 09:13:49;;;;;;;51.03;27.70;;;16.70;99.90;;;;;;5080932;28;20517;-76
2021/07/01 09:16:17;;;;;;;46.15;27.23;;;16.70;99.90;;;;;;5080878;28;20135;-76
2021/07/01 09:18:45;;;;;;;53.63;29.02;;;16.70;99.90;;;;;;5065915;28;20042;-85
2021/07/01 09:21:14;;;;;;;48.50;28.45;;;16.80;99.90;;;;;;5063836;28;20032;-84
2021/07/01 09:23:48;;;;;;;59.88;29.70;;;16.90;99.90;;;;;;5084819;28;20038;-85
2021/07/01 09:26:25;;;;;;;47.53;27.20;;;16.90;99.90;;;;;;5085879;28;20036;-75
2021/07/01 09:28:52;;;;;;;43.40;25.65;;;17.00;99.90;;;;;;5084447;28;20052;-77
2021/07/01 09:31:20;;;;;;;45.33;26.75;;;17.10;99.90;;;;;;5083125;28;20730;-76
2021/07/01 09:33:47;;;;;;;47.42;27.73;;;17.20;99.90;;;;;;5068545;28;20084;-76
2021/07/01 09:36:14;;;;;;;47.10;28.85;;;17.30;99.90;;;;;;5080283;28;20063;-76
2021/07/01 09:38:44;;;;;;;36.58;23.27;;;17.40;99.90;;;;;;5083824;28;20036;-76
2021/07/01 09:41:11;;;;;;;44.58;27.90;;;17.50;99.90;;;;;;5084281;28;20092;-76
2021/07/01 09:43:44;;;;;;;48.38;28.33;;;17.50;99.90;;;;;;5070053;28;20139;-77
2021/07/01 09:46:16;;;;;;;44.40;25.90;;;17.60;99.90;;;;;;5085691;28;20483;-76
2021/07/01 09:48:45;;;;;;;45.05;25.67;;;17.60;99.90;;;;;;5087752;28;20036;-76
2021/07/01 09:51:12;;;;;;;43.45;25.95;;;17.60;99.90;;;;;;5087317;28;20667;-85
2021/07/01 09:53:39;;;;;;;41.25;25.23;;;17.70;99.90;;;;;;5086811;28;20028;-85
2021/07/01 09:56:12;;;;;;;38.83;26.38;;;17.60;99.90;;;;;;5087900;28;20040;-76
2021/07/01 09:58:46;;;;;;;49.30;27.48;;;17.70;99.90;;;;;;5087774;28;20437;-75
2021/07/01 10:01:40;;;;;;;38.03;24.67;;;17.70;99.90;;;;;;5084930;28;20032;-76
2021/07/01 10:04:07;;;;;;;40.78;25.40;;;17.70;99.90;;;;;;5083169;28;20123;-77
2021/07/01 10:06:37;;;;;;;37.03;24.40;;;17.70;99.90;;;;;;5086858;28;20024;-77
2021/07/01 10:09:07;;;;;;;38.85;25.80;;;17.70;99.90;;;;;;5074017;28;20110;-78
2021/07/01 10:11:37;;;;;;;40.78;25.10;;;17.70;99.90;;;;;;5061148;28;20399;-77
2021/07/01 10:14:06;;;;;;;45.10;27.63;;;17.70;99.90;;;;;;5052538;28;20123;-84
2021/07/01 10:16:37;;;;;;;36.83;25.05;;;17.70;99.90;;;;;;5052470;28;20392;-84
2021/07/01 10:19:05;;;;;;;40.92;26.55;;;17.80;99.90;;;;;;5054731;28;20139;-76
2021/07/01 10:21:32;;;;;;;37.35;24.88;;;17.80;99.90;;;;;;5055097;28;20044;-86
2021/07/01 10:24:08;;;;;;;38.40;24.80;;;17.90;99.90;;;;;;5038726;28;20036;-86
2021/07/01 10:26:40;;;;;;;34.58;24.40;;;17.90;99.90;;;;;;5045156;28;20091;-86
2021/07/01 10:29:10;;;;;;;33.20;22.77;;;18.00;99.90;;;;;;5052121;28;20511;-86
2021/07/01 10:31:57;;;;;;;35.47;23.05;;;18.20;99.90;;;;;;5057695;28;20040;-87
2021/07/01 10:34:30;;;;;;;35.95;22.20;;;18.30;99.90;;;;;;5055364;28;20045;-87
2021/07/01 10:37:26;;;;;;;36.70;24.08;;;18.40;99.90;;;;;;5069095;28;20044;-85
2021/07/01 10:39:53;;;;;;;34.65;23.38;;;18.50;99.90;;;;;;5056122;28;20059;-84
2021/07/01 10:42:20;;;;;;;35.67;25.42;;;18.50;99.90;;;;;;5036919;28;20496;-83
2021/07/01 10:44:46;;;;;;;37.00;22.63;;;18.60;99.90;;;;;;5054716;28;20410;-84
2021/07/01 10:47:42;;;;;;;33.35;23.13;;;18.60;99.90;;;;;;5026336;28;20062;-83
2021/07/01 10:50:21;;;;;;;33.65;23.77;;;18.60;99.90;;;;;;5044195;28;20048;-84
2021/07/01 10:52:47;;;;;;;30.02;22.60;;;18.50;99.90;;;;;;5053690;28;20606;-85
2021/07/01 10:55:15;;;;;;;33.55;24.10;;;18.50;99.90;;;;;;5054633;28;20040;-84
2021/07/01 10:58:15;;;;;;;29.58;21.48;;;18.50;99.90;;;;;;5055070;28;20045;-83
2021/07/01 11:00:45;;;;;;;;;;;18.60;99.90;;;;;;5055260;28;20047;-84
2021/07/01 11:03:25;;;;;;;31.25;23.85;;;18.50;99.90;;;;;;5052645;28;19955;-83
2021/07/01 11:05:52;;;;;;;;;;;18.50;99.90;;;;;;5055572;28;20037;-85
2021/07/01 11:08:32;;;;;;;37.95;23.50;;;18.50;99.90;;;;;;5043903;28;19927;-83
2021/07/01 11:11:01;;;;;;;31.88;22.67;;;18.60;99.90;;;;;;5062970;28;20089;-83
2021/07/01 11:13:30;;;;;;;33.42;23.05;;;18.60;99.90;;;;;;5085271;28;20059;-86
2021/07/01 11:16:13;;;;;;;32.58;22.13;;;18.70;99.90;;;;;;5081991;28;20110;-85
2021/07/01 11:18:41;;;;;;;35.72;22.98;;;18.80;99.90;;;;;;5083583;28;20075;-85
2021/07/01 11:21:13;;;;;;;31.73;22.95;;;18.90;99.90;;;;;;5081997;28;20044;-81
2021/07/01 11:23:40;;;;;;;29.70;22.30;;;18.90;99.90;;;;;;5088443;28;20040;-85
2021/07/01 11:26:33;;;;;;;26.73;21.33;;;19.00;99.90;;;;;;5086395;28;20137;-85
2021/07/01 11:29:07;;;;;;;30.02;22.65;;;19.00;99.90;;;;;;5082347;28;20040;-82
2021/07/01 11:31:48;;;;;;;29.05;22.15;;;18.90;99.90;;;;;;5082034;28;20036;-85
2021/07/01 11:34:17;;;;;;;;;;;19.00;99.90;;;;;;5085405;28;20699;-88
2021/07/01 11:36:54;;;;;;;31.10;22.42;;;19.00;99.90;;;;;;5082883;28;19927;-85
2021/07/01 11:39:30;;;;;;;32.83;22.88;;;19.00;99.90;;;;;;5081667;28;20047;-87
2021/07/01 11:41:57;;;;;;;31.33;21.20;;;19.10;99.90;;;;;;5075544;28;20041;-86
2021/07/01 11:44:28;;;;;;;31.98;21.98;;;19.20;99.90;;;;;;5080732;28;20046;-86
2021/07/01 11:47:02;;;;;;;31.38;21.70;;;19.20;99.90;;;;;;5080255;28;20036;-85
2021/07/01 11:49:31;;;;;;;;;;;19.30;99.90;;;;;;5081433;28;20505;-85
2021/07/01 11:52:01;;;;;;;31.88;20.55;;;19.30;99.90;;;;;;5082151;28;19973;-85
2021/07/01 11:54:28;;;;;;;27.23;20.67;;;19.40;99.90;;;;;;5077518;28;20032;-85
2021/07/01 11:56:56;;;;;;;23.60;19.52;;;19.40;99.90;;;;;;5066091;28;20036;-86
2021/07/01 11:59:24;;;;;;;25.50;19.63;;;19.50;99.90;;;;;;5080816;28;20047;-84
2021/07/01 12:01:51;;;;;;;24.55;18.80;;;19.50;99.90;;;;;;5084813;28;20043;-86
2021/07/01 12:04:18;;;;;;;29.20;20.75;;;19.50;99.90;;;;;;5082156;28;20144;-85
2021/07/01 12:06:44;;;;;;;25.33;20.23;;;19.40;99.90;;;;;;5077662;28;20119;-85
2021/07/01 12:09:12;;;;;;;30.08;21.10;;;19.40;99.90;;;;;;5079841;28;20197;-86
2021/07/01 12:12:13;;;;;;;30.02;22.58;;;19.40;99.90;;;;;;5083021;28;20036;-85
2021/07/01 12:14:45;;;;;;;25.65;19.67;;;19.40;99.90;;;;;;5061557;28;20394;-86
2021/07/01 12:17:11;;;;;;;29.80;20.52;;;19.50;99.90;;;;;;5081532;28;20048;-83
2021/07/01 12:19:46;;;;;;;28.52;19.80;;;19.60;99.90;;;;;;5079901;28;20093;-84
2021/07/01 12:22:44;;;;;;;27.20;20.20;;;19.80;99.90;;;;;;5083193;28;20066;-86
2021/07/01 12:25:25;;;;;;;26.13;19.52;;;20.00;99.90;;;;;;5081826;28;20028;-84
2021/07/01 12:28:06;;;;;;;24.45;19.00;;;20.00;99.90;;;;;;5082155;28;20078;-84
2021/07/01 12:30:56;;;;;;;22.42;19.55;;;20.00;99.90;;;;;;5077399;28;20123;-84
2021/07/01 12:33:32;;;;;;;24.92;19.25;;;20.20;99.90;;;;;;5083276;28;20402;-85
2021/07/01 12:36:25;;;;;;;25.83;19.00;;;20.50;99.90;;;;;;5083521;28;20052;-84
2021/07/01 12:39:13;;;;;;;21.27;17.95;;;20.70;99.90;;;;;;5078365;28;20068;-85
2021/07/01 12:41:47;;;;;;;25.63;19.92;;;20.80;99.10;;;;;;5081820;28;20100;-77
2021/07/01 12:44:34;;;;;;;24.05;17.92;;;20.80;98.70;;;;;;5078554;28;20044;-77